ENBR/BGO METAR and TAF weather

Enter ICAO airport designator
Station Type Date Time Source
ENBR METAR 2021/05/14 07:50 UTC NOAA

ENBR 140750Z VRB01KT 9999 FEW020TCU BKN080 11/10 Q1004 TEMPO SHRA RMK WIND 1200FT 15004KT


Station Type Date Time Source
ENBR Decoded METAR 2021/05/14 07:50 UTC NOAA

Bergen / Flesland, Norway (ENBR) 60-17N 005-14E 50M
May 14, 2021 - 03:50 AM EDT / 2021.05.14 0750 UTC
Wind: Variable at 1 MPH (1 KT):0
Visibility: greater than 7 mile(s):0
Sky conditions: mostly cloudy
Weather: Towering cumulus clouds observed
Temperature: 51 F (11 C)
Dew Point: 50 F (10 C)
Relative Humidity: 93%
Pressure (altimeter): 29.65 in. Hg (1004 hPa)
ob: ENBR 140750Z VRB01KT 9999 FEW020TCU BKN080 11/10 Q1004 TEMPO SHRA RMK WIND 1200FT 15004KT
cycle: 8

Station Type Date Time Source
ENBR TAF 2021/05/14 06:57 UTC NOAA

TAF ENBR 140500Z 1406/1506 VRB03KT 9999 FEW030 SCT070 PROB30
TEMPO 1406/1505 SHRA SCT010 BKN025CB
BECMG 1409/1411 20010KT
BECMG 1415/1418 VRB03KT

Example: see airport list